Time;durP1;ratioP1;P1;durP2;ratioP2;P2;SDS_P1;SDS_P2;PMS_P1;PMS_P2;Temp;Humidity;BMP_temperature;BMP_pressure;BME280_temperature;BME280_humidity;BME280_pressure;Samples;Min_cycle;Max_cycle;Signal;HPM_P1;HPM_P2
2021/06/26 00:00:52;;;;;;;2.83;2.55;;;16.30;99.90;;;;;;5030181;28;20104;-71
2021/06/26 00:03:22;;;;;;;3.78;3.20;;;16.20;99.90;;;;;;5023314;28;20062;-71
2021/06/26 00:05:48;;;;;;;4.15;2.33;;;16.20;99.90;;;;;;5031175;28;20105;-72
2021/06/26 00:08:14;;;;;;;4.07;2.55;;;16.20;99.90;;;;;;5029759;28;20088;-72
2021/06/26 00:10:41;;;;;;;3.40;3.10;;;16.00;99.90;;;;;;5031003;28;20085;-72
2021/06/26 00:13:07;;;;;;;3.55;2.75;;;16.00;99.90;;;;;;5028698;28;20093;-72
2021/06/26 00:15:33;;;;;;;4.25;2.70;;;16.00;99.90;;;;;;5030617;28;20089;-71
2021/06/26 00:17:59;;;;;;;4.00;2.67;;;16.00;99.90;;;;;;5026615;28;20074;-71
2021/06/26 00:20:24;;;;;;;3.22;2.75;;;16.00;99.90;;;;;;5027609;28;20082;-71
2021/06/26 00:22:50;;;;;;;5.70;2.95;;;16.00;99.90;;;;;;5030107;28;20070;-72
2021/06/26 00:25:15;;;;;;;3.47;2.70;;;16.00;99.90;;;;;;5028705;28;20106;-71
2021/06/26 00:27:41;;;;;;;4.38;2.80;;;15.90;99.90;;;;;;5030529;28;20449;-73
2021/06/26 00:30:07;;;;;;;3.75;3.10;;;15.90;99.90;;;;;;5012778;28;20181;-71
2021/06/26 00:32:33;;;;;;;6.30;3.13;;;15.90;99.90;;;;;;5030766;28;20140;-72
2021/06/26 00:34:58;;;;;;;3.83;2.78;;;15.80;99.90;;;;;;5030251;28;20120;-72
2021/06/26 00:37:24;;;;;;;5.75;3.17;;;15.90;99.90;;;;;;5030294;28;20078;-72
2021/06/26 00:39:49;;;;;;;4.40;3.08;;;15.90;99.90;;;;;;5013138;28;20109;-71
2021/06/26 00:42:15;;;;;;;3.30;2.60;;;15.80;99.90;;;;;;5031175;28;20074;-72
2021/06/26 00:44:41;;;;;;;3.08;2.72;;;15.70;99.90;;;;;;5031397;28;20070;-72
2021/06/26 00:47:12;;;;;;;3.70;3.13;;;15.70;99.90;;;;;;5028720;28;20078;-71
2021/06/26 00:49:40;;;;;;;3.15;2.75;;;15.80;99.90;;;;;;5031521;28;20539;-72
2021/06/26 00:52:06;;;;;;;4.93;2.78;;;15.70;99.90;;;;;;5029802;28;20066;-72
2021/06/26 00:54:33;;;;;;;3.17;2.60;;;15.60;99.90;;;;;;5030109;28;20097;-72
2021/06/26 00:57:00;;;;;;;4.30;2.75;;;15.60;99.90;;;;;;5030090;28;20068;-71
2021/06/26 00:59:26;;;;;;;4.57;2.70;;;15.60;99.90;;;;;;5010954;28;20477;-73
2021/06/26 01:01:52;;;;;;;3.33;2.78;;;15.60;99.90;;;;;;5011853;28;20074;-73
2021/06/26 01:04:17;;;;;;;3.95;2.80;;;15.60;99.90;;;;;;5028363;28;20082;-73
2021/06/26 01:06:43;;;;;;;3.20;2.60;;;15.60;99.90;;;;;;5028690;28;20081;-73
2021/06/26 01:09:08;;;;;;;4.07;3.10;;;15.50;99.90;;;;;;5027999;28;20744;-73
2021/06/26 01:11:34;;;;;;;3.63;3.00;;;15.50;99.90;;;;;;5029096;28;20552;-73
2021/06/26 01:14:01;;;;;;;3.75;2.83;;;15.50;99.90;;;;;;5029742;28;20082;-73
2021/06/26 01:16:27;;;;;;;4.22;3.08;;;15.50;99.90;;;;;;5028829;28;20093;-72
2021/06/26 01:18:53;;;;;;;4.22;2.92;;;15.50;99.90;;;;;;5028749;28;20097;-73
2021/06/26 01:21:18;;;;;;;4.63;3.63;;;15.40;99.90;;;;;;5028858;28;20074;-73
2021/06/26 01:23:50;;;;;;;4.32;3.22;;;15.50;99.90;;;;;;5011896;28;20082;-72
2021/06/26 01:26:16;;;;;;;4.60;3.42;;;15.30;99.90;;;;;;5010637;28;20121;-73
2021/06/26 01:28:42;;;;;;;3.70;3.28;;;15.30;99.90;;;;;;5020695;28;20090;-73
2021/06/26 01:31:08;;;;;;;4.97;3.35;;;15.20;99.90;;;;;;5026243;28;20081;-72
2021/06/26 01:33:34;;;;;;;3.90;3.28;;;15.30;99.90;;;;;;5027175;28;20563;-74
2021/06/26 01:36:00;;;;;;;3.70;2.85;;;15.20;99.90;;;;;;5029765;28;20104;-72
2021/06/26 01:38:26;;;;;;;4.30;2.97;;;15.20;99.90;;;;;;5027327;28;20128;-74
2021/06/26 01:40:51;;;;;;;4.53;3.00;;;15.20;99.90;;;;;;5008498;28;20751;-73
2021/06/26 01:43:17;;;;;;;4.68;2.97;;;15.20;99.90;;;;;;5027094;28;20139;-73
2021/06/26 01:45:42;;;;;;;4.40;3.30;;;15.20;99.90;;;;;;5028252;28;20074;-72
2021/06/26 01:48:08;;;;;;;7.93;3.42;;;15.10;99.90;;;;;;5010169;28;20077;-72
2021/06/26 01:50:33;;;;;;;5.38;2.85;;;15.20;99.90;;;;;;5026614;28;20089;-72
2021/06/26 01:53:02;;;;;;;3.50;3.03;;;15.10;99.90;;;;;;5026474;28;20132;-72
2021/06/26 01:55:28;;;;;;;5.95;3.30;;;15.10;99.90;;;;;;5026418;28;20144;-72
2021/06/26 01:57:54;;;;;;;3.03;2.72;;;15.10;99.90;;;;;;5026993;28;20493;-72
2021/06/26 02:00:22;;;;;;;4.03;3.30;;;15.00;99.90;;;;;;5007766;28;20086;-72
2021/06/26 02:02:49;;;;;;;6.13;2.92;;;15.00;99.90;;;;;;5027396;28;20082;-72
2021/06/26 02:05:17;;;;;;;5.00;3.05;;;14.90;99.90;;;;;;5023899;28;20101;-72
2021/06/26 02:07:46;;;;;;;2.90;2.60;;;14.90;99.90;;;;;;5008961;28;20561;-72
2021/06/26 02:10:13;;;;;;;4.13;2.83;;;14.80;99.90;;;;;;5026628;28;20098;-72
2021/06/26 02:12:38;;;;;;;5.07;3.38;;;14.90;99.90;;;;;;5027244;28;20135;-72
2021/06/26 02:15:05;;;;;;;6.18;3.58;;;14.90;99.90;;;;;;5008819;28;20132;-72
2021/06/26 02:17:31;;;;;;;3.85;3.05;;;14.80;99.90;;;;;;5028545;28;20085;-72
2021/06/26 02:19:56;;;;;;;5.13;3.10;;;14.80;99.90;;;;;;5029066;28;20098;-72
2021/06/26 02:22:22;;;;;;;3.85;2.97;;;14.70;99.90;;;;;;5028919;28;20086;-73
2021/06/26 02:24:48;;;;;;;5.88;3.05;;;14.80;99.90;;;;;;5026733;28;20105;-73
2021/06/26 02:27:13;;;;;;;6.03;3.90;;;14.70;99.90;;;;;;5019471;28;20430;-72
2021/06/26 02:29:39;;;;;;;4.32;3.63;;;14.70;99.90;;;;;;5009742;28;20152;-73
2021/06/26 02:32:05;;;;;;;4.97;3.40;;;14.60;99.90;;;;;;5024971;28;20086;-73
2021/06/26 02:34:31;;;;;;;4.95;3.90;;;14.60;99.90;;;;;;5017115;28;20461;-73
2021/06/26 02:36:57;;;;;;;4.95;3.50;;;14.60;99.90;;;;;;5025416;28;20128;-72
2021/06/26 02:39:22;;;;;;;6.13;4.10;;;14.60;99.90;;;;;;5024400;28;20208;-72
2021/06/26 02:41:48;;;;;;;5.88;3.50;;;14.60;99.90;;;;;;5006831;28;20109;-72
2021/06/26 02:44:14;;;;;;;4.25;3.70;;;14.60;99.90;;;;;;5010578;28;20074;-72
2021/06/26 02:46:39;;;;;;;4.07;3.67;;;14.60;99.90;;;;;;5027887;28;20085;-72
2021/06/26 02:49:05;;;;;;;4.47;3.28;;;14.60;99.90;;;;;;5029297;28;20098;-72
2021/06/26 02:51:31;;;;;;;4.63;3.88;;;14.60;99.90;;;;;;5014860;28;20164;-72
2021/06/26 02:53:56;;;;;;;6.15;3.58;;;14.60;99.90;;;;;;5029594;28;20457;-72
2021/06/26 02:56:22;;;;;;;11.35;3.47;;;14.50;99.90;;;;;;5030419;28;20181;-72
2021/06/26 02:58:48;;;;;;;3.40;3.10;;;14.50;99.90;;;;;;5031624;28;20120;-72
2021/06/26 03:01:14;;;;;;;4.10;3.40;;;14.40;99.90;;;;;;5031802;28;20082;-72
2021/06/26 03:03:39;;;;;;;9.95;3.83;;;14.40;99.90;;;;;;5031901;28;20074;-73
2021/06/26 03:06:05;;;;;;;5.22;2.53;;;14.30;99.90;;;;;;5012476;28;20078;-72
2021/06/26 03:08:30;;;;;;;5.07;3.00;;;14.20;99.90;;;;;;5028273;28;20180;-72
2021/06/26 03:10:56;;;;;;;5.95;2.95;;;14.10;99.90;;;;;;5013579;28;20074;-72
2021/06/26 03:13:22;;;;;;;6.15;4.10;;;14.10;99.90;;;;;;5032300;28;20074;-72
2021/06/26 03:15:48;;;;;;;7.10;4.93;;;14.20;99.90;;;;;;5030228;28;20473;-72
2021/06/26 03:18:14;;;;;;;4.88;3.97;;;14.20;99.90;;;;;;5030094;28;20244;-72
2021/06/26 03:20:40;;;;;;;6.18;3.58;;;14.30;99.90;;;;;;5030839;28;20745;-72
2021/06/26 03:23:06;;;;;;;5.15;3.65;;;14.20;99.90;;;;;;5030606;28;20085;-72
2021/06/26 03:25:31;;;;;;;5.53;3.72;;;14.20;99.90;;;;;;5030271;28;20799;-72
2021/06/26 03:27:57;;;;;;;4.40;3.70;;;14.10;99.90;;;;;;5031055;28;20078;-72
2021/06/26 03:30:23;;;;;;;4.95;3.85;;;14.10;99.90;;;;;;5013075;28;20078;-72
2021/06/26 03:32:48;;;;;;;5.22;3.97;;;14.20;99.90;;;;;;5030583;28;20140;-72
2021/06/26 03:35:14;;;;;;;4.63;3.70;;;14.20;99.90;;;;;;5025255;28;20457;-72
2021/06/26 03:37:40;;;;;;;6.63;3.65;;;14.20;99.90;;;;;;5032169;28;20105;-72
2021/06/26 03:40:07;;;;;;;4.47;3.58;;;14.20;99.90;;;;;;5011252;28;20106;-72
2021/06/26 03:42:32;;;;;;;5.70;3.47;;;14.20;99.90;;;;;;5031856;28;20074;-72
2021/06/26 03:44:58;;;;;;;7.45;3.72;;;14.20;99.90;;;;;;5032126;28;20120;-72
2021/06/26 03:47:25;;;;;;;9.20;4.22;;;14.20;99.90;;;;;;5011032;28;20074;-72
2021/06/26 03:49:51;;;;;;;4.55;3.90;;;14.20;99.90;;;;;;5010906;28;20561;-72
2021/06/26 03:52:17;;;;;;;8.32;3.90;;;14.20;99.90;;;;;;5009736;28;20096;-72
2021/06/26 03:54:43;;;;;;;5.72;4.55;;;14.20;99.90;;;;;;5029154;28;20148;-72
2021/06/26 03:57:08;;;;;;;7.10;4.05;;;14.20;99.90;;;;;;5030461;28;20070;-72
2021/06/26 03:59:34;;;;;;;5.20;3.92;;;14.20;99.90;;;;;;5029962;28;20277;-72
2021/06/26 04:02:00;;;;;;;4.80;3.85;;;14.20;99.90;;;;;;5031439;28;20530;-73
2021/06/26 04:04:25;;;;;;;5.45;3.95;;;14.30;99.90;;;;;;5014842;28;20509;-73
2021/06/26 04:06:51;;;;;;;7.35;4.00;;;14.30;99.90;;;;;;5029233;28;20100;-73
2021/06/26 04:09:16;;;;;;;7.30;4.40;;;14.20;99.90;;;;;;5031916;28;20122;-73
2021/06/26 04:11:42;;;;;;;5.97;3.83;;;14.20;99.90;;;;;;5013652;28;20728;-72
2021/06/26 04:14:07;;;;;;;6.18;4.80;;;14.20;99.90;;;;;;5031436;28;20078;-73
2021/06/26 04:16:33;;;;;;;5.75;4.38;;;14.20;99.90;;;;;;5013577;28;20549;-72
2021/06/26 04:18:59;;;;;;;5.90;4.78;;;14.30;99.90;;;;;;5031395;28;20557;-72
2021/06/26 04:21:24;;;;;;;5.00;4.35;;;14.40;99.90;;;;;;5031027;28;20573;-73
2021/06/26 04:23:50;;;;;;;8.52;5.25;;;14.40;99.90;;;;;;5030862;28;20081;-72
2021/06/26 04:26:15;;;;;;;8.15;4.88;;;14.30;99.90;;;;;;5028042;28;20082;-73
2021/06/26 04:28:41;;;;;;;6.28;4.93;;;14.40;99.90;;;;;;5024559;28;20189;-72
2021/06/26 04:31:06;;;;;;;5.95;4.80;;;14.30;99.90;;;;;;5030064;28;20164;-72
2021/06/26 04:33:32;;;;;;;9.02;4.57;;;14.40;99.90;;;;;;5012127;28;20160;-72
2021/06/26 04:35:57;;;;;;;7.00;5.38;;;14.50;99.90;;;;;;5025417;28;20117;-73
2021/06/26 04:38:23;;;;;;;9.00;6.30;;;14.60;99.90;;;;;;5027183;28;20228;-73
2021/06/26 04:40:51;;;;;;;8.48;6.25;;;14.60;99.90;;;;;;5027847;28;20124;-73
2021/06/26 04:43:16;;;;;;;7.45;5.85;;;14.70;99.90;;;;;;5031839;28;20108;-73
2021/06/26 04:45:45;;;;;;;6.18;5.18;;;14.80;99.90;;;;;;5029137;28;20078;-73
2021/06/26 04:48:12;;;;;;;7.85;6.38;;;14.70;99.90;;;;;;5028990;28;20113;-73
2021/06/26 04:50:38;;;;;;;7.40;5.53;;;14.70;99.90;;;;;;5029204;28;20074;-72
2021/06/26 04:53:03;;;;;;;6.60;5.90;;;14.70;99.90;;;;;;5023684;28;20082;-73
2021/06/26 04:55:29;;;;;;;8.63;5.93;;;14.70;99.90;;;;;;5027965;28;20508;-72
2021/06/26 04:57:55;;;;;;;8.15;6.00;;;14.90;99.90;;;;;;5029930;28;20078;-73
2021/06/26 05:00:21;;;;;;;8.50;6.68;;;14.90;99.90;;;;;;5030286;28;20097;-73
2021/06/26 05:02:46;;;;;;;7.68;6.68;;;15.00;99.90;;;;;;5010993;28;20116;-72
2021/06/26 05:05:12;;;;;;;9.90;8.13;;;15.10;99.90;;;;;;5012364;28;20140;-73
2021/06/26 05:07:37;;;;;;;10.13;7.13;;;15.30;99.90;;;;;;5030407;28;20074;-73
2021/06/26 05:10:04;;;;;;;10.07;6.78;;;15.30;99.90;;;;;;5030909;28;20181;-72
2021/06/26 05:12:30;;;;;;;10.13;7.38;;;15.30;99.90;;;;;;5009746;28;20076;-73
2021/06/26 05:14:55;;;;;;;9.68;7.50;;;15.40;99.90;;;;;;5028225;28;20184;-73
2021/06/26 05:17:21;;;;;;;9.32;6.78;;;15.50;99.90;;;;;;5027324;28;20090;-72
2021/06/26 05:19:46;;;;;;;9.48;6.60;;;15.60;99.90;;;;;;5026985;28;20657;-72
2021/06/26 05:22:13;;;;;;;8.75;6.25;;;15.70;99.90;;;;;;5029196;28;20085;-73
2021/06/26 05:24:39;;;;;;;9.18;7.57;;;15.80;99.90;;;;;;5010827;28;20157;-72
2021/06/26 05:27:05;;;;;;;9.93;6.63;;;15.90;99.90;;;;;;5027827;28;20074;-73
2021/06/26 05:29:32;;;;;;;8.80;7.43;;;16.00;99.90;;;;;;5010896;28;20565;-73
2021/06/26 05:31:57;;;;;;;9.25;6.78;;;16.10;99.90;;;;;;5029802;28;20530;-73
2021/06/26 05:34:23;;;;;;;9.02;7.35;;;16.20;99.90;;;;;;5026726;28;20066;-73
2021/06/26 05:36:49;;;;;;;9.73;7.65;;;16.30;99.90;;;;;;5029740;28;20549;-73
2021/06/26 05:39:14;;;;;;;9.55;7.40;;;16.40;99.90;;;;;;5030114;28;20098;-73
2021/06/26 05:41:40;;;;;;;12.98;8.30;;;16.50;99.90;;;;;;5029516;28;20080;-72
2021/06/26 05:44:05;;;;;;;9.25;7.30;;;16.60;99.90;;;;;;5028994;28;20069;-74
2021/06/26 05:46:31;;;;;;;7.90;6.95;;;16.70;99.90;;;;;;5017664;28;20534;-72
2021/06/26 05:48:57;;;;;;;11.30;7.57;;;16.80;99.90;;;;;;5012225;28;20465;-74
2021/06/26 05:51:22;;;;;;;10.52;8.18;;;16.90;99.90;;;;;;5012205;28;20073;-73
2021/06/26 05:53:49;;;;;;;7.85;6.47;;;16.90;99.90;;;;;;5020609;28;20081;-73
2021/06/26 05:56:14;;;;;;;9.05;7.90;;;17.00;99.90;;;;;;5006151;28;20097;-73
2021/06/26 05:58:40;;;;;;;9.60;8.15;;;17.00;99.90;;;;;;5027591;28;20090;-73
2021/06/26 06:01:07;;;;;;;9.73;7.97;;;17.10;99.90;;;;;;5005159;28;20446;-73
2021/06/26 06:03:33;;;;;;;9.77;7.50;;;17.20;99.90;;;;;;5021150;28;20079;-73
2021/06/26 06:05:59;;;;;;;11.45;8.30;;;17.40;99.90;;;;;;5029013;28;20082;-73
2021/06/26 06:08:25;;;;;;;9.48;7.63;;;17.50;99.90;;;;;;5027062;28;20736;-73
2021/06/26 06:10:50;;;;;;;10.30;8.02;;;17.50;99.90;;;;;;5022167;28;20088;-72
2021/06/26 06:13:19;;;;;;;11.10;7.53;;;17.50;99.90;;;;;;5028466;28;20452;-73
2021/06/26 06:15:46;;;;;;;9.55;7.10;;;17.50;99.90;;;;;;5024787;28;20094;-72
2021/06/26 06:18:12;;;;;;;12.23;7.82;;;17.60;99.90;;;;;;5022578;28;20085;-73
2021/06/26 06:20:39;;;;;;;6.95;5.38;;;17.70;99.90;;;;;;5022345;28;20526;-73
2021/06/26 06:23:04;;;;;;;9.85;7.53;;;17.80;99.90;;;;;;5028219;28;20469;-73
2021/06/26 06:25:31;;;;;;;10.02;6.78;;;17.80;99.90;;;;;;5030652;28;20144;-73
2021/06/26 06:27:57;;;;;;;7.03;5.65;;;17.80;99.90;;;;;;5001736;28;20097;-73
2021/06/26 06:30:23;;;;;;;8.00;5.85;;;18.00;99.90;;;;;;5026228;28;20161;-73
2021/06/26 06:32:49;;;;;;;7.03;5.05;;;18.00;99.90;;;;;;5026543;28;20074;-73
2021/06/26 06:35:15;;;;;;;5.57;4.82;;;18.20;99.90;;;;;;5026119;28;20101;-73
2021/06/26 06:37:40;;;;;;;8.38;5.50;;;18.20;99.90;;;;;;5026000;28;20070;-73
2021/06/26 06:40:07;;;;;;;6.07;4.82;;;18.30;99.90;;;;;;5029770;28;20101;-73
2021/06/26 06:42:33;;;;;;;6.95;5.65;;;18.50;99.90;;;;;;5027505;28;20070;-73
2021/06/26 06:44:59;;;;;;;7.65;5.32;;;18.50;99.90;;;;;;5030847;28;20976;-73
2021/06/26 06:47:24;;;;;;;8.15;5.50;;;18.50;99.90;;;;;;5012615;28;20161;-75
2021/06/26 06:49:50;;;;;;;6.78;5.40;;;18.60;99.90;;;;;;5028714;28;20090;-72
2021/06/26 06:52:15;;;;;;;5.13;4.28;;;18.60;99.90;;;;;;5032151;28;20445;-73
2021/06/26 06:54:41;;;;;;;5.63;4.90;;;18.60;99.90;;;;;;5014550;28;20088;-74
2021/06/26 06:57:07;;;;;;;6.80;5.20;;;18.70;99.90;;;;;;5030800;28;20093;-73
2021/06/26 06:59:32;;;;;;;6.55;5.10;;;18.80;99.90;;;;;;5010722;28;20090;-73
2021/06/26 07:01:58;;;;;;;6.70;5.30;;;18.70;99.90;;;;;;5029997;28;20069;-73
2021/06/26 07:04:24;;;;;;;5.90;5.00;;;18.60;99.90;;;;;;5030103;28;20677;-73
2021/06/26 07:06:50;;;;;;;6.35;5.07;;;18.40;99.90;;;;;;5031592;28;20074;-73
2021/06/26 07:09:16;;;;;;;7.20;5.00;;;18.40;99.90;;;;;;5031100;28;20090;-73
2021/06/26 07:11:41;;;;;;;5.95;5.35;;;18.30;99.90;;;;;;5014504;28;20078;-73
2021/06/26 07:14:07;;;;;;;5.53;4.72;;;18.30;99.90;;;;;;5030589;28;20445;-73
2021/06/26 07:16:33;;;;;;;6.00;5.15;;;18.30;99.90;;;;;;5031937;28;20105;-73
2021/06/26 07:18:58;;;;;;;5.07;4.57;;;18.50;99.90;;;;;;5032386;28;20082;-77
2021/06/26 07:21:24;;;;;;;5.28;4.68;;;18.70;99.90;;;;;;5021714;28;20082;-72
2021/06/26 07:23:49;;;;;;;8.32;4.68;;;18.70;99.90;;;;;;5027878;28;20104;-72
2021/06/26 07:26:15;;;;;;;4.70;3.90;;;18.80;99.90;;;;;;5030560;28;20161;-72
2021/06/26 07:28:41;;;;;;;5.45;4.50;;;18.90;99.90;;;;;;5029817;28;20442;-71
2021/06/26 07:31:07;;;;;;;5.03;3.97;;;18.90;99.90;;;;;;5029256;28;20085;-71
2021/06/26 07:33:32;;;;;;;4.40;3.88;;;19.00;99.90;;;;;;5028255;28;20109;-73
2021/06/26 07:35:58;;;;;;;4.45;3.72;;;19.10;99.90;;;;;;5023880;28;20090;-73
2021/06/26 07:38:23;;;;;;;4.82;3.70;;;19.20;99.90;;;;;;5024680;28;20086;-71
2021/06/26 07:40:50;;;;;;;3.58;3.05;;;19.40;99.90;;;;;;5024649;28;20069;-73
2021/06/26 07:43:15;;;;;;;5.80;4.15;;;19.20;99.90;;;;;;5021150;28;20620;-74
2021/06/26 07:45:41;;;;;;;3.38;3.05;;;19.30;99.90;;;;;;5017041;28;20085;-72
2021/06/26 07:48:07;;;;;;;4.30;3.45;;;19.30;99.90;;;;;;5029643;28;20089;-71
2021/06/26 07:50:33;;;;;;;4.78;4.07;;;19.30;99.90;;;;;;5030450;28;20074;-71
2021/06/26 07:52:58;;;;;;;4.72;3.60;;;19.40;99.90;;;;;;5029820;28;20162;-71
2021/06/26 07:55:24;;;;;;;4.82;3.38;;;19.40;99.90;;;;;;5029416;28;20133;-73
2021/06/26 07:57:51;;;;;;;4.20;3.30;;;19.60;99.90;;;;;;5010821;28;20101;-74
2021/06/26 08:00:17;;;;;;;3.97;3.58;;;19.70;99.90;;;;;;5027622;28;20148;-75
2021/06/26 08:02:42;;;;;;;4.82;4.10;;;19.80;99.90;;;;;;5029704;28;20086;-73
2021/06/26 08:05:08;;;;;;;5.03;3.78;;;19.70;99.90;;;;;;5024746;28;20078;-77
2021/06/26 08:07:34;;;;;;;7.57;3.95;;;19.80;99.90;;;;;;5013751;28;20078;-75
2021/06/26 08:09:59;;;;;;;5.07;3.40;;;19.70;99.90;;;;;;5028515;28;20504;-73
2021/06/26 08:12:25;;;;;;;4.07;3.03;;;19.80;99.90;;;;;;5010347;28;20085;-74
2021/06/26 08:14:51;;;;;;;3.83;3.53;;;19.80;99.90;;;;;;5030461;28;20582;-77
2021/06/26 08:17:16;;;;;;;4.28;3.80;;;20.00;99.90;;;;;;5028515;28;20136;-76
2021/06/26 08:19:42;;;;;;;4.55;4.07;;;20.20;99.90;;;;;;5029167;28;20604;-73
2021/06/26 08:22:08;;;;;;;4.57;4.10;;;20.00;99.90;;;;;;5026876;28;20074;-72
2021/06/26 08:24:34;;;;;;;4.68;3.80;;;19.90;99.90;;;;;;5030223;28;20102;-72
2021/06/26 08:27:01;;;;;;;4.53;3.72;;;19.80;99.90;;;;;;5010644;28;20085;-72
2021/06/26 08:29:27;;;;;;;4.00;3.13;;;19.90;99.90;;;;;;5029627;28;20090;-72
2021/06/26 08:31:53;;;;;;;4.00;2.80;;;20.10;99.90;;;;;;5028540;28;20139;-72
2021/06/26 08:34:19;;;;;;;3.75;3.15;;;20.20;99.90;;;;;;5012929;28;20082;-73
2021/06/26 08:36:44;;;;;;;3.53;3.00;;;20.30;99.90;;;;;;5029448;28;20094;-72
2021/06/26 08:39:10;;;;;;;5.35;3.65;;;20.30;99.90;;;;;;5028946;28;20094;-74
2021/06/26 08:41:40;;;;;;;3.28;2.70;;;20.30;99.90;;;;;;5026432;28;20082;-72
2021/06/26 08:44:06;;;;;;;3.90;3.17;;;20.20;99.90;;;;;;5013521;28;20109;-72
2021/06/26 08:46:32;;;;;;;5.43;3.58;;;20.20;99.90;;;;;;5026296;28;20078;-72
2021/06/26 08:48:58;;;;;;;3.08;2.80;;;20.20;99.90;;;;;;5025733;28;20645;-75
2021/06/26 08:51:24;;;;;;;3.72;3.38;;;20.20;99.90;;;;;;5027580;28;20668;-73
2021/06/26 08:53:50;;;;;;;4.63;3.55;;;20.40;99.90;;;;;;5029139;28;20109;-73
2021/06/26 08:56:15;;;;;;;6.47;3.65;;;20.30;99.90;;;;;;5028858;28;20183;-73
2021/06/26 08:58:41;;;;;;;3.95;3.50;;;20.30;99.90;;;;;;5029592;28;20148;-74
2021/06/26 09:01:06;;;;;;;4.10;3.70;;;20.40;99.90;;;;;;5012671;28;20082;-72
2021/06/26 09:03:32;;;;;;;3.92;3.50;;;20.60;99.90;;;;;;5030265;28;20542;-72
2021/06/26 09:06:04;;;;;;;4.38;3.20;;;20.70;99.90;;;;;;5026605;28;20089;-72
2021/06/26 09:08:29;;;;;;;4.03;3.13;;;20.60;99.90;;;;;;5027142;28;20090;-73
2021/06/26 09:10:55;;;;;;;6.32;3.72;;;20.50;99.90;;;;;;5024306;28;20084;-73
2021/06/26 09:13:24;;;;;;;4.38;3.35;;;20.80;99.90;;;;;;5028595;28;20070;-73
2021/06/26 09:16:02;;;;;;;4.63;3.22;;;21.00;99.90;;;;;;5027633;28;20089;-72
2021/06/26 09:18:28;;;;;;;3.67;2.63;;;21.10;99.90;;;;;;5027803;28;20097;-73
2021/06/26 09:20:55;;;;;;;3.88;3.42;;;20.90;99.90;;;;;;5024272;28;20074;-73
2021/06/26 09:23:36;;;;;;;3.33;2.63;;;20.80;99.90;;;;;;5027027;28;20076;-71
2021/06/26 09:26:11;;;;;;;3.17;2.88;;;21.10;99.90;;;;;;5011169;28;20175;-73
2021/06/26 09:28:38;;;;;;;5.35;4.18;;;20.70;99.90;;;;;;5024012;28;20089;-71
2021/06/26 09:31:04;;;;;;;4.50;2.80;;;20.60;99.90;;;;;;5016657;28;20442;-71
2021/06/26 09:33:30;;;;;;;3.90;3.28;;;20.90;99.90;;;;;;5031048;28;20498;-73
2021/06/26 09:36:03;;;;;;;3.35;2.90;;;21.00;99.90;;;;;;5025393;28;20129;-73
2021/06/26 09:38:31;;;;;;;2.95;2.65;;;20.90;99.90;;;;;;5013437;28;20090;-72
2021/06/26 09:40:56;;;;;;;4.28;3.53;;;20.90;99.90;;;;;;5009739;28;20445;-73
2021/06/26 09:43:30;;;;;;;5.30;2.50;;;21.10;99.90;;;;;;5029664;28;20062;-72
2021/06/26 09:46:16;;;;;;;1.90;1.67;;;21.10;99.90;;;;;;5027850;28;20140;-72
2021/06/26 09:49:03;;;;;;;2.22;1.50;;;21.10;99.90;;;;;;5024688;28;20086;-73
2021/06/26 09:51:31;;;;;;;3.03;2.15;;;21.20;99.90;;;;;;5025917;28;20078;-72
2021/06/26 09:53:59;;;;;;;2.53;2.33;;;21.20;99.90;;;;;;5009423;28;20078;-72
2021/06/26 09:56:37;;;;;;;3.53;2.45;;;21.20;99.90;;;;;;5027316;28;20086;-71
2021/06/26 09:59:03;;;;;;;2.55;2.03;;;21.30;99.90;;;;;;5029765;28;20151;-72
2021/06/26 10:01:31;;;;;;;2.97;2.20;;;21.40;99.90;;;;;;5011992;28;20070;-71
2021/06/26 10:03:58;;;;;;;2.85;2.00;;;21.70;99.90;;;;;;5029511;28;20228;-73
2021/06/26 10:06:24;;;;;;;2.40;1.90;;;21.60;99.90;;;;;;5027261;28;20085;-72
2021/06/26 10:08:50;;;;;;;2.28;1.75;;;21.70;99.90;;;;;;5019763;23;20121;-72
2021/06/26 10:11:17;;;;;;;1.73;1.35;;;21.70;99.90;;;;;;4990765;28;20481;-73
2021/06/26 10:13:44;;;;;;;2.10;1.45;;;21.60;99.90;;;;;;5008901;28;20157;-70
2021/06/26 10:16:09;;;;;;;2.47;2.28;;;21.70;99.90;;;;;;5006490;28;20118;-70
2021/06/26 10:18:35;;;;;;;2.55;2.22;;;21.60;99.90;;;;;;5006124;28;20094;-72
2021/06/26 10:21:03;;;;;;;3.25;2.17;;;21.70;99.90;;;;;;5007138;28;20067;-73
2021/06/26 10:23:33;;;;;;;1.67;1.58;;;21.90;99.90;;;;;;5005191;28;20166;-73
2021/06/26 10:25:59;;;;;;;3.05;2.30;;;22.00;99.90;;;;;;5008496;28;20086;-73
2021/06/26 10:28:25;;;;;;;3.70;2.30;;;22.10;99.90;;;;;;5002765;28;21303;-72
2021/06/26 10:31:12;;;;;;;3.55;2.90;;;22.10;99.90;;;;;;5009828;28;20071;-75
2021/06/26 10:33:39;;;;;;;3.55;2.50;;;22.10;99.90;;;;;;5003918;28;20208;-69
2021/06/26 10:36:05;;;;;;;3.95;2.47;;;21.80;99.90;;;;;;5002299;28;20090;-70
2021/06/26 10:38:42;;;;;;;3.85;2.90;;;21.70;99.90;;;;;;5007886;28;20098;-71
2021/06/26 10:41:21;;;;;;;3.53;2.60;;;21.70;99.90;;;;;;5005065;28;20534;-70
2021/06/26 10:43:55;;;;;;;3.30;2.80;;;21.80;99.90;;;;;;5002337;28;20445;-70
2021/06/26 10:46:21;;;;;;;3.00;2.60;;;22.00;99.90;;;;;;4990093;28;20107;-71
2021/06/26 10:49:13;;;;;;;2.72;2.17;;;21.80;99.90;;;;;;4991184;28;20753;-71
2021/06/26 10:51:41;;;;;;;2.80;2.03;;;22.00;99.90;;;;;;5003540;28;20157;-71
2021/06/26 10:54:13;;;;;;;3.58;2.40;;;22.20;99.90;;;;;;4988059;28;20457;-71
2021/06/26 10:56:39;;;;;;;2.58;2.28;;;22.30;99.90;;;;;;5007955;28;20090;-70
2021/06/26 10:59:13;;;;;;;3.90;2.35;;;22.20;99.90;;;;;;5006946;28;20086;-70
2021/06/26 11:01:39;;;;;;;2.65;2.45;;;22.10;99.90;;;;;;5007602;28;20081;-71
2021/06/26 11:04:09;;;;;;;2.83;2.55;;;22.10;99.90;;;;;;5006624;28;20141;-71
2021/06/26 11:06:36;;;;;;;3.65;2.63;;;22.20;99.90;;;;;;5005298;28;20082;-70
2021/06/26 11:09:10;;;;;;;2.95;2.65;;;22.10;99.90;;;;;;5002989;28;20102;-70
2021/06/26 11:11:37;;;;;;;2.60;2.40;;;22.20;99.90;;;;;;5010341;28;20152;-70
2021/06/26 11:14:13;;;;;;;2.95;2.47;;;22.10;99.90;;;;;;5010552;28;20074;-70
2021/06/26 11:16:41;;;;;;;3.55;2.63;;;22.40;99.90;;;;;;4994079;28;20233;-70
2021/06/26 11:19:07;;;;;;;3.22;2.72;;;22.40;99.90;;;;;;5008582;28;20145;-71
2021/06/26 11:21:51;;;;;;;3.92;2.78;;;22.40;99.90;;;;;;5010233;28;20563;-72
2021/06/26 11:24:18;;;;;;;4.17;2.83;;;22.30;99.90;;;;;;5010013;28;20074;-71
2021/06/26 11:26:55;;;;;;;3.90;2.95;;;22.50;99.90;;;;;;5005790;28;20578;-71
2021/06/26 11:29:26;;;;;;;3.80;3.03;;;22.60;99.90;;;;;;5012344;28;20105;-70
2021/06/26 11:31:52;;;;;;;2.78;2.58;;;22.50;99.90;;;;;;5011335;28;20083;-71
2021/06/26 11:34:17;;;;;;;3.08;2.65;;;22.60;99.90;;;;;;5010416;28;20082;-71
2021/06/26 11:36:43;;;;;;;2.95;2.45;;;22.80;99.90;;;;;;5010486;28;20473;-70
2021/06/26 11:39:09;;;;;;;3.72;2.35;;;22.80;99.90;;;;;;5008853;28;20560;-70
2021/06/26 11:41:35;;;;;;;2.88;2.42;;;22.60;99.90;;;;;;4992381;28;20079;-71
2021/06/26 11:44:03;;;;;;;2.50;2.30;;;22.50;99.90;;;;;;5010302;28;20075;-70
2021/06/26 11:46:28;;;;;;;3.47;2.20;;;22.90;99.90;;;;;;4992599;28;20082;-70
2021/06/26 11:48:54;;;;;;;2.95;2.42;;;22.90;99.90;;;;;;4997775;28;20570;-70
2021/06/26 11:51:19;;;;;;;4.90;2.10;;;22.70;99.90;;;;;;5009700;28;20082;-70
2021/06/26 11:53:48;;;;;;;3.05;2.60;;;22.80;99.90;;;;;;4988815;28;20078;-70
2021/06/26 11:56:14;;;;;;;2.85;2.38;;;22.70;99.90;;;;;;5007380;28;20450;-70
2021/06/26 11:58:43;;;;;;;2.88;2.47;;;22.80;99.90;;;;;;5011226;28;20114;-70
2021/06/26 12:01:09;;;;;;;5.22;2.05;;;22.90;99.90;;;;;;5006855;28;20105;-70
2021/06/26 12:03:35;;;;;;;3.08;2.47;;;23.10;99.90;;;;;;5008035;28;20185;-70
2021/06/26 12:06:09;;;;;;;4.43;2.53;;;22.90;99.90;;;;;;4990971;28;20714;-70
2021/06/26 12:08:54;;;;;;;5.07;3.00;;;22.80;99.90;;;;;;5008831;28;20157;-70
2021/06/26 12:11:25;;;;;;;3.75;2.05;;;22.60;99.90;;;;;;4985567;28;20117;-70
2021/06/26 12:13:53;;;;;;;2.55;2.08;;;22.80;99.90;;;;;;5006219;28;20081;-70
2021/06/26 12:16:24;;;;;;;2.67;2.45;;;22.80;99.90;;;;;;5007448;28;20098;-71
2021/06/26 12:18:56;;;;;;;3.95;2.17;;;22.70;99.90;;;;;;5005581;28;20764;-71
2021/06/26 12:21:26;;;;;;;2.88;2.40;;;22.70;99.90;;;;;;5006416;28;20094;-70
2021/06/26 12:23:54;;;;;;;3.83;2.83;;;22.80;99.90;;;;;;5008187;28;20430;-70
2021/06/26 12:26:23;;;;;;;2.92;2.10;;;22.70;99.90;;;;;;5005099;28;20099;-70
2021/06/26 12:28:50;;;;;;;3.60;2.50;;;22.80;99.90;;;;;;5010006;28;20094;-71
2021/06/26 12:31:18;;;;;;;3.00;2.40;;;22.70;99.90;;;;;;5008944;28;20430;-70
2021/06/26 12:33:47;;;;;;;3.00;2.70;;;22.60;99.90;;;;;;5007319;28;20089;-70
2021/06/26 12:36:19;;;;;;;3.13;2.28;;;22.50;99.90;;;;;;5008512;28;20098;-71
2021/06/26 12:38:46;;;;;;;3.25;2.35;;;22.70;99.90;;;;;;5001795;28;20101;-71
2021/06/26 12:41:18;;;;;;;3.75;2.53;;;22.90;99.90;;;;;;5006269;28;20102;-70
2021/06/26 12:43:44;;;;;;;3.75;2.17;;;23.10;99.90;;;;;;5000554;28;20094;-71